createdAt,value
2019-01-23T00:01:56.072Z,2.80
2019-01-23T00:04:27.414Z,2.84
2019-01-23T00:06:58.464Z,2.75
2019-01-23T00:09:29.470Z,2.71
2019-01-23T00:12:00.525Z,2.80
2019-01-23T00:14:31.573Z,2.73
2019-01-23T00:17:02.864Z,2.69
2019-01-23T00:19:33.851Z,2.76
2019-01-23T00:22:05.684Z,2.76
2019-01-23T00:24:36.667Z,2.62
2019-01-23T00:27:07.626Z,2.67
2019-01-23T00:29:39.311Z,2.85
2019-01-23T00:32:10.281Z,2.71
2019-01-23T00:34:42.254Z,2.80
2019-01-23T00:37:13.575Z,2.62
2019-01-23T00:39:44.734Z,2.54
2019-01-23T00:42:16.906Z,2.61
2019-01-23T00:44:48.940Z,2.67
2019-01-23T00:47:20.013Z,2.60
2019-01-23T00:49:51.328Z,2.70
2019-01-23T00:52:22.659Z,2.65
2019-01-23T00:54:53.656Z,2.64
2019-01-23T00:57:25.027Z,2.73
2019-01-23T00:59:56.027Z,2.80
2019-01-23T01:02:27.064Z,2.84
2019-01-23T01:04:58.416Z,2.76
2019-01-23T01:07:29.919Z,2.82
2019-01-23T01:10:00.977Z,2.73
2019-01-23T01:12:32.275Z,2.75
2019-01-23T01:15:03.581Z,2.74
2019-01-23T01:17:34.754Z,2.69
2019-01-23T01:20:08.388Z,2.55
2019-01-23T01:22:39.576Z,2.68
2019-01-23T01:25:13.859Z,2.63
2019-01-23T01:27:45.257Z,2.56
2019-01-23T01:30:22.362Z,2.52
2019-01-23T01:32:53.506Z,2.52
2019-01-23T01:35:24.641Z,2.60
2019-01-23T01:37:55.651Z,2.57
2019-01-23T01:40:27.821Z,2.68
2019-01-23T01:42:58.988Z,2.71
2019-01-23T01:45:30.090Z,2.69
2019-01-23T01:48:01.176Z,2.53
2019-01-23T01:50:32.501Z,2.54
2019-01-23T01:53:03.631Z,2.59
2019-01-23T01:55:35.159Z,2.58
2019-01-23T01:58:10.013Z,2.56
2019-01-23T02:00:39.568Z,2.49
2019-01-23T02:03:10.593Z,2.63
2019-01-23T02:05:41.615Z,2.66
2019-01-23T02:08:12.962Z,2.56
2019-01-23T02:10:43.944Z,2.58
2019-01-23T02:13:15.256Z,2.59
2019-01-23T02:15:46.239Z,2.61
2019-01-23T02:18:17.235Z,2.66
2019-01-23T02:20:48.486Z,2.44
2019-01-23T02:23:19.951Z,2.61
2019-01-23T02:25:51.159Z,2.57
2019-01-23T02:28:22.447Z,2.57
2019-01-23T02:30:54.383Z,2.60
2019-01-23T02:33:26.038Z,2.60
2019-01-23T02:35:57.084Z,2.56
2019-01-23T02:38:28.164Z,2.56
2019-01-23T02:40:59.496Z,2.48
2019-01-23T02:43:30.570Z,2.43
2019-01-23T02:46:02.507Z,2.56
2019-01-23T02:48:34.088Z,2.36
2019-01-23T02:51:05.378Z,2.38
2019-01-23T02:53:36.345Z,2.27
2019-01-23T02:56:08.816Z,2.40
2019-01-23T02:58:39.863Z,2.41
2019-01-23T03:01:10.910Z,2.52
2019-01-23T03:03:41.887Z,2.52
2019-01-23T03:06:13.084Z,2.62
2019-01-23T03:08:44.380Z,2.61
2019-01-23T03:11:15.420Z,2.45
2019-01-23T03:13:46.376Z,2.57
2019-01-23T03:16:17.402Z,2.53
2019-01-23T03:18:48.729Z,2.41
2019-01-23T03:21:20.109Z,2.30
2019-01-23T03:23:52.406Z,2.23
2019-01-23T03:26:23.639Z,2.32
2019-01-23T03:28:54.604Z,2.38
2019-01-23T03:31:25.930Z,2.34
2019-01-23T03:33:56.895Z,2.36
2019-01-23T03:36:28.254Z,2.29
2019-01-23T03:38:59.452Z,2.42
2019-01-23T03:41:30.429Z,2.42
2019-01-23T03:44:01.712Z,2.35
2019-01-23T03:46:33.265Z,2.31
2019-01-23T03:49:04.797Z,2.31
2019-01-23T03:51:35.883Z,2.24
2019-01-23T03:54:07.213Z,2.14
2019-01-23T03:56:38.579Z,2.10
2019-01-23T03:59:09.570Z,1.97
2019-01-23T04:01:40.725Z,1.84
2019-01-23T04:04:12.101Z,1.88
2019-01-23T04:06:43.679Z,1.91
2019-01-23T04:09:14.638Z,1.90
2019-01-23T04:11:45.708Z,1.66
2019-01-23T04:14:16.941Z,1.73
2019-01-23T04:16:47.985Z,1.76
2019-01-23T04:19:20.004Z,1.62
2019-01-23T04:21:51.068Z,1.60
2019-01-23T04:24:23.462Z,1.53
2019-01-23T04:26:54.449Z,1.47
2019-01-23T04:29:25.816Z,1.57
2019-01-23T04:31:57.674Z,1.53
2019-01-23T04:34:28.956Z,1.62
2019-01-23T04:36:59.945Z,1.58
2019-01-23T04:39:31.125Z,1.54
2019-01-23T04:42:02.148Z,1.43
2019-01-23T04:44:33.510Z,1.37
2019-01-23T04:47:04.534Z,1.23
2019-01-23T04:49:35.747Z,1.22
2019-01-23T04:52:15.644Z,1.22
2019-01-23T04:54:46.858Z,1.18
2019-01-23T04:57:17.825Z,1.21
2019-01-23T04:59:48.813Z,1.26
2019-01-23T05:02:19.790Z,1.28
2019-01-23T05:04:51.142Z,1.19
2019-01-23T05:07:22.214Z,1.26
2019-01-23T05:09:53.908Z,1.32
2019-01-23T05:12:25.008Z,1.32
2019-01-23T05:14:56.067Z,1.41
2019-01-23T05:17:27.376Z,1.33
2019-01-23T05:19:58.433Z,1.30
2019-01-23T05:22:29.487Z,1.21
2019-01-23T05:25:00.584Z,1.04
2019-01-23T05:27:31.786Z,0.93
2019-01-23T05:30:02.900Z,0.89
2019-01-23T05:32:34.053Z,0.93
2019-01-23T05:35:06.068Z,0.94
2019-01-23T05:37:38.409Z,0.89
2019-01-23T05:40:09.931Z,0.74
2019-01-23T05:42:41.111Z,0.70
2019-01-23T05:45:13.797Z,0.68
2019-01-23T05:47:44.903Z,0.65
2019-01-23T05:50:17.010Z,0.61
2019-01-23T05:52:49.064Z,0.57
2019-01-23T05:55:20.053Z,0.57
2019-01-23T05:57:51.068Z,0.43
2019-01-23T06:00:23.138Z,0.58
2019-01-23T06:02:55.258Z,0.60
2019-01-23T06:05:26.623Z,0.58
2019-01-23T06:07:58.295Z,0.63
2019-01-23T06:10:29.832Z,0.54
2019-01-23T06:13:00.858Z,0.49
2019-01-23T06:15:32.108Z,0.56
2019-01-23T06:18:03.419Z,0.50
2019-01-23T06:20:34.589Z,0.54
2019-01-23T06:23:05.780Z,0.54
2019-01-23T06:25:36.765Z,0.57
2019-01-23T06:28:07.798Z,0.59
2019-01-23T06:30:39.150Z,0.38
2019-01-23T06:33:10.193Z,0.39
2019-01-23T06:35:41.541Z,0.43
2019-01-23T06:38:12.782Z,0.38
2019-01-23T06:40:43.840Z,0.32
2019-01-23T06:43:14.861Z,0.33
2019-01-23T06:45:45.971Z,0.32
2019-01-23T06:48:17.982Z,0.34
2019-01-23T06:50:49.357Z,0.17
2019-01-23T06:53:31.279Z,0.16
2019-01-23T06:56:16.310Z,0.07
2019-01-23T06:58:48.048Z,0.04
2019-01-23T07:01:19.258Z,-0.05
2019-01-23T07:03:51.258Z,-0.02
2019-01-23T07:06:22.313Z,-0.10
2019-01-23T07:08:54.734Z,-0.03
2019-01-23T07:11:25.713Z,0.03
2019-01-23T07:13:56.761Z,0.04
2019-01-23T07:16:27.721Z,0.01
2019-01-23T07:18:58.730Z,0.07
2019-01-23T07:21:30.893Z,0.07
2019-01-23T07:24:01.881Z,0.01
2019-01-23T07:26:32.849Z,-0.01
2019-01-23T07:29:03.858Z,-0.02
2019-01-23T07:31:34.835Z,-0.02
2019-01-23T07:34:06.400Z,-0.06
2019-01-23T07:36:37.388Z,-0.04
2019-01-23T07:39:11.160Z,-0.11
2019-01-23T07:41:43.075Z,-0.16
2019-01-23T07:44:15.085Z,-0.12
2019-01-23T07:46:46.534Z,-0.09
2019-01-23T07:49:17.599Z,-0.11
2019-01-23T07:51:48.578Z,-0.12
2019-01-23T07:54:19.675Z,-0.07
2019-01-23T07:56:50.740Z,0.07
2019-01-23T07:59:21.739Z,0.13
2019-01-23T08:01:52.717Z,0.25
2019-01-23T08:04:25.263Z,0.11
2019-01-23T08:06:56.221Z,0.25
2019-01-23T08:09:27.473Z,0.48
2019-01-23T08:11:58.583Z,0.58
2019-01-23T08:14:30.887Z,0.63
2019-01-23T08:17:04.475Z,0.78
2019-01-23T08:19:35.440Z,0.82
2019-01-23T08:22:09.822Z,0.97
2019-01-23T08:24:41.859Z,1.10
2019-01-23T08:27:13.071Z,1.16
2019-01-23T08:29:44.033Z,1.28
2019-01-23T08:32:15.055Z,1.23
2019-01-23T08:34:46.105Z,1.39
2019-01-23T08:37:17.360Z,1.47
2019-01-23T08:39:48.316Z,1.44
2019-01-23T08:42:19.601Z,1.33
2019-01-23T08:44:50.890Z,1.44
2019-01-23T08:47:22.172Z,1.51
2019-01-23T08:49:53.287Z,1.53
2019-01-23T08:52:25.476Z,1.52
2019-01-23T08:54:56.832Z,1.65
2019-01-23T08:57:27.878Z,1.66
2019-01-23T08:59:59.361Z,1.65
2019-01-23T09:02:31.320Z,1.85
2019-01-23T09:05:02.595Z,1.92
2019-01-23T09:07:35.042Z,2.07
2019-01-23T09:10:10.796Z,2.21
2019-01-23T09:12:41.825Z,2.25
2019-01-23T09:15:13.684Z,2.37
2019-01-23T09:17:45.037Z,2.30
2019-01-23T09:20:18.270Z,2.39
2019-01-23T09:22:49.554Z,2.38
2019-01-23T09:25:22.854Z,2.49
2019-01-23T09:27:54.144Z,2.48
2019-01-23T09:30:52.753Z,2.65
2019-01-23T09:34:05.759Z,2.80
2019-01-23T09:37:27.410Z,2.93
2019-01-23T09:40:55.638Z,2.90
2019-01-23T09:44:19.428Z,2.88
2019-01-23T09:47:28.898Z,2.92
2019-01-23T09:50:33.949Z,2.88
2019-01-23T09:53:43.080Z,2.99
2019-01-23T09:56:17.283Z,2.99
2019-01-23T09:58:48.249Z,3.20
2019-01-23T10:01:19.318Z,3.30
2019-01-23T10:03:50.519Z,3.47
2019-01-23T10:06:21.488Z,3.53
2019-01-23T10:08:53.068Z,3.64
2019-01-23T10:11:24.032Z,3.83
2019-01-23T10:13:55.353Z,3.80
2019-01-23T10:16:26.483Z,3.80
2019-01-23T10:18:57.726Z,3.74
2019-01-23T10:21:28.919Z,3.73
2019-01-23T10:24:00.315Z,3.67
2019-01-23T10:26:32.130Z,3.69
2019-01-23T10:29:03.112Z,3.72
2019-01-23T10:31:34.091Z,3.73
2019-01-23T10:34:05.459Z,3.73
2019-01-23T10:36:36.959Z,3.89
2019-01-23T10:39:09.783Z,3.87
2019-01-23T10:41:40.913Z,3.91
2019-01-23T10:44:11.966Z,4.02
2019-01-23T10:46:43.018Z,4.07
2019-01-23T10:49:14.009Z,4.34
2019-01-23T10:51:44.970Z,4.42
2019-01-23T10:54:15.923Z,4.28
2019-01-23T10:56:47.205Z,4.35
2019-01-23T10:59:18.603Z,4.39
2019-01-23T11:01:49.573Z,4.50
2019-01-23T11:04:20.977Z,4.35
2019-01-23T11:06:52.122Z,4.31
2019-01-23T11:09:23.448Z,4.26
2019-01-23T11:11:54.641Z,4.30
2019-01-23T11:14:25.701Z,4.26
2019-01-23T11:16:56.765Z,4.22
2019-01-23T11:19:28.116Z,4.14
2019-01-23T11:21:59.093Z,4.24
2019-01-23T11:24:30.287Z,4.16
2019-01-23T11:27:01.404Z,4.17
2019-01-23T11:29:33.781Z,3.74
2019-01-23T11:32:05.437Z,3.67
2019-01-23T11:34:36.399Z,3.51
2019-01-23T11:37:07.456Z,3.44
2019-01-23T11:39:38.824Z,3.41
2019-01-23T11:42:10.285Z,3.22
2019-01-23T11:44:41.420Z,3.48
2019-01-23T11:47:12.485Z,3.64
2019-01-23T11:49:43.451Z,3.26
2019-01-23T11:52:14.847Z,3.20
2019-01-23T11:54:45.892Z,3.36
2019-01-23T11:57:17.237Z,3.47
2019-01-23T11:59:48.284Z,3.48
2019-01-23T12:02:20.342Z,3.56
2019-01-23T12:04:52.515Z,3.58
2019-01-23T12:07:24.557Z,3.50
2019-01-23T12:09:55.535Z,3.28
2019-01-23T12:12:26.886Z,3.24
2019-01-23T12:14:58.087Z,3.33
2019-01-23T12:17:29.317Z,3.49
2019-01-23T12:20:00.602Z,3.42
2019-01-23T12:22:32.622Z,3.20
2019-01-23T12:25:04.676Z,3.32
2019-01-23T12:27:36.083Z,3.41
2019-01-23T12:30:12.679Z,3.40
2019-01-23T12:32:43.756Z,3.28
2019-01-23T12:35:14.798Z,3.33
2019-01-23T12:37:45.910Z,3.25
2019-01-23T12:40:17.151Z,3.27
2019-01-23T12:42:48.656Z,3.43
2019-01-23T12:45:26.170Z,3.28
2019-01-23T12:47:57.621Z,3.27
2019-01-23T12:50:31.159Z,3.24
2019-01-23T12:53:02.227Z,3.43
2019-01-23T12:55:36.774Z,3.37
2019-01-23T12:58:07.866Z,3.32
2019-01-23T13:00:39.448Z,3.24
2019-01-23T13:03:10.580Z,3.12
2019-01-23T13:05:41.733Z,3.12
2019-01-23T13:08:12.914Z,3.00
2019-01-23T13:10:43.873Z,2.87
2019-01-23T13:13:14.874Z,3.15
2019-01-23T13:15:46.245Z,3.23
2019-01-23T13:18:17.240Z,3.07
2019-01-23T13:20:48.642Z,3.02
2019-01-23T13:23:20.032Z,3.27
2019-01-23T13:25:51.437Z,3.27
2019-01-23T13:28:22.478Z,3.14
2019-01-23T13:30:54.195Z,3.25
2019-01-23T13:33:25.303Z,3.10
2019-01-23T13:35:56.371Z,3.09
2019-01-23T13:38:27.338Z,3.32
2019-01-23T13:40:58.638Z,3.59
2019-01-23T13:43:29.677Z,3.68
2019-01-23T13:46:01.276Z,3.61
2019-01-23T13:48:32.404Z,3.83
2019-01-23T13:51:04.869Z,3.92
2019-01-23T13:53:35.992Z,3.85
2019-01-23T13:56:07.144Z,3.62
2019-01-23T13:58:41.906Z,3.69
2019-01-23T14:01:11.113Z,3.64
2019-01-23T14:03:42.361Z,3.44
2019-01-23T14:06:13.362Z,3.48
2019-01-23T14:08:44.619Z,3.49
2019-01-23T14:11:15.824Z,3.27
2019-01-23T14:13:47.119Z,3.48
2019-01-23T14:16:18.743Z,3.28
2019-01-23T14:18:49.707Z,3.45
2019-01-23T14:21:20.695Z,3.52
2019-01-23T14:23:51.893Z,3.37
2019-01-23T14:26:22.884Z,3.36
2019-01-23T14:28:53.891Z,3.43
2019-01-23T14:31:25.263Z,3.41
2019-01-23T14:33:57.615Z,3.41
2019-01-23T14:36:28.755Z,3.57
2019-01-23T14:39:00.026Z,3.65
2019-01-23T14:41:30.998Z,3.71
2019-01-23T14:44:02.066Z,3.61
2019-01-23T14:46:33.044Z,3.62
2019-01-23T14:49:05.470Z,3.68
2019-01-23T14:51:37.303Z,3.64
2019-01-23T14:54:08.333Z,3.54
2019-01-23T14:56:39.454Z,3.60
2019-01-23T14:59:10.612Z,3.44
2019-01-23T15:01:41.582Z,3.44
2019-01-23T15:04:12.920Z,3.52
2019-01-23T15:06:45.155Z,3.52
2019-01-23T15:09:16.244Z,3.56
2019-01-23T15:11:47.258Z,3.67
2019-01-23T15:14:18.508Z,3.58
2019-01-23T15:16:49.544Z,3.39
2019-01-23T15:19:20.799Z,3.46
2019-01-23T15:21:51.879Z,3.64
2019-01-23T15:24:23.249Z,3.57
2019-01-23T15:26:54.353Z,3.24
2019-01-23T15:29:25.738Z,3.13
2019-01-23T15:31:56.854Z,3.23
2019-01-23T15:34:28.258Z,3.28
2019-01-23T15:36:59.455Z,3.31
2019-01-23T15:39:30.600Z,3.33
2019-01-23T15:42:01.836Z,3.25
2019-01-23T15:44:33.156Z,3.36
2019-01-23T15:47:08.271Z,3.47
2019-01-23T15:49:39.735Z,3.14
2019-01-23T15:52:11.201Z,3.13
2019-01-23T15:54:43.663Z,3.30
2019-01-23T15:57:14.970Z,3.35
2019-01-23T15:59:46.241Z,3.20
2019-01-23T16:02:24.098Z,3.23
2019-01-23T16:04:50.605Z,3.18
2019-01-23T16:07:21.742Z,3.32
2019-01-23T16:09:53.503Z,3.44
2019-01-23T16:12:24.975Z,3.30
2019-01-23T16:14:56.497Z,3.06
2019-01-23T16:17:27.707Z,2.86
2019-01-23T16:19:59.491Z,2.99
2019-01-23T16:22:30.627Z,2.80
2019-01-23T16:25:02.296Z,2.81
2019-01-23T16:27:33.910Z,2.96
2019-01-23T16:30:10.085Z,2.91
2019-01-23T16:32:41.324Z,2.80
2019-01-23T16:35:12.917Z,2.89
2019-01-23T16:37:44.567Z,2.86
2019-01-23T16:40:15.851Z,2.84
2019-01-23T16:42:47.147Z,2.84
2019-01-23T16:45:19.246Z,2.78
2019-01-23T16:47:50.783Z,2.92
2019-01-23T16:50:23.361Z,3.10
2019-01-23T16:52:55.529Z,3.14
2019-01-23T16:55:27.187Z,2.96
2019-01-23T16:58:00.146Z,2.90
2019-01-23T17:00:32.127Z,2.75
2019-01-23T17:03:04.064Z,2.89
2019-01-23T17:05:36.678Z,2.69
2019-01-23T17:08:09.490Z,3.01
2019-01-23T17:10:41.042Z,2.86
2019-01-23T17:13:12.432Z,2.89
2019-01-23T17:15:44.197Z,2.94
2019-01-23T17:18:15.582Z,3.09
2019-01-23T17:20:50.048Z,3.02
2019-01-23T17:23:21.747Z,2.94
2019-01-23T17:25:53.343Z,3.17
2019-01-23T17:28:24.658Z,3.15
2019-01-23T17:30:56.213Z,2.98
2019-01-23T17:33:27.588Z,2.86
2019-01-23T17:35:59.573Z,2.78
2019-01-23T17:38:31.102Z,2.53
2019-01-23T17:41:02.452Z,2.61
2019-01-23T17:43:34.981Z,2.51
2019-01-23T17:46:06.485Z,2.53
2019-01-23T17:48:40.456Z,2.48
2019-01-23T17:51:11.804Z,2.64
2019-01-23T17:53:43.475Z,2.58
2019-01-23T17:56:15.294Z,2.61
2019-01-23T17:58:47.389Z,2.73
2019-01-23T18:01:18.899Z,2.87
2019-01-23T18:03:50.587Z,2.83
2019-01-23T18:06:22.378Z,2.67
2019-01-23T18:08:53.975Z,2.59
2019-01-23T18:11:25.664Z,2.61
2019-01-23T18:13:57.220Z,2.79
2019-01-23T18:16:28.928Z,2.82
2019-01-23T18:19:00.734Z,2.80
2019-01-23T18:21:32.887Z,2.90
2019-01-23T18:24:04.489Z,3.02
2019-01-23T18:26:37.675Z,2.94
2019-01-23T18:29:10.762Z,2.64
2019-01-23T18:32:03.338Z,2.58
2019-01-23T18:35:17.311Z,2.44
2019-01-23T18:38:45.863Z,2.40
2019-01-23T18:42:07.867Z,2.32
2019-01-23T18:44:51.669Z,2.41
2019-01-23T18:48:21.724Z,2.40
2019-01-23T18:51:28.510Z,2.49
2019-01-23T18:54:00.470Z,2.35
2019-01-23T18:56:33.688Z,2.44
2019-01-23T18:59:06.064Z,2.58
2019-01-23T19:01:37.780Z,2.59
2019-01-23T19:04:09.643Z,2.63
2019-01-23T19:06:43.237Z,2.61
2019-01-23T19:09:17.686Z,2.59
2019-01-23T19:11:49.402Z,2.48
2019-01-23T19:14:24.608Z,2.58
2019-01-23T19:16:55.453Z,2.37
2019-01-23T19:19:27.452Z,2.52
2019-01-23T19:21:59.486Z,2.45
2019-01-23T19:24:31.429Z,2.33
2019-01-23T19:27:03.604Z,2.30
2019-01-23T19:29:37.494Z,2.24
2019-01-23T19:34:45.208Z,2.07
2019-01-23T19:37:17.099Z,2.01
2019-01-23T19:39:49.005Z,1.96
2019-01-23T19:42:21.322Z,2.06
2019-01-23T19:44:52.982Z,2.15
2019-01-23T19:47:25.015Z,2.14
2019-01-23T19:49:57.061Z,2.33
2019-01-23T19:52:29.425Z,2.38
2019-01-23T19:55:01.844Z,2.33
2019-01-23T19:57:33.998Z,2.27
2019-01-23T20:00:11.131Z,2.11
2019-01-23T20:02:44.133Z,2.13
2019-01-23T20:05:25.247Z,2.12
2019-01-23T20:07:57.516Z,2.18
2019-01-23T20:10:30.269Z,2.16
2019-01-23T20:13:02.256Z,2.16
2019-01-23T20:15:34.082Z,2.09
2019-01-23T20:18:10.779Z,2.18
2019-01-23T20:20:43.134Z,2.18
2019-01-23T20:23:14.898Z,2.09
2019-01-23T20:25:47.941Z,2.22
2019-01-23T20:28:19.932Z,2.26
2019-01-23T20:30:51.736Z,2.36
2019-01-23T20:33:27.876Z,2.29
2019-01-23T20:35:57.377Z,2.38
2019-01-23T20:38:29.028Z,2.35
2019-01-23T20:41:00.999Z,2.24
2019-01-23T20:43:32.760Z,2.24
2019-01-23T20:46:04.645Z,2.28
2019-01-23T20:48:36.667Z,2.38
2019-01-23T20:51:08.611Z,2.35
2019-01-23T20:53:40.281Z,2.47
2019-01-23T20:56:12.121Z,2.55
2019-01-23T20:58:44.522Z,2.46
2019-01-23T21:01:16.387Z,2.47
2019-01-23T21:03:48.047Z,2.24
2019-01-23T21:06:20.223Z,2.23
2019-01-23T21:08:52.148Z,2.28
2019-01-23T21:11:23.710Z,2.19
2019-01-23T21:13:55.273Z,2.26
2019-01-23T21:16:26.954Z,2.15
2019-01-23T21:18:58.623Z,2.24
2019-01-23T21:21:30.367Z,2.19
2019-01-23T21:24:01.850Z,1.98
2019-01-23T21:26:33.508Z,2.04
2019-01-23T21:29:05.635Z,2.03
2019-01-23T21:31:37.207Z,2.16
2019-01-23T21:34:08.738Z,2.25
2019-01-23T21:36:40.163Z,2.45
2019-01-23T21:39:12.732Z,2.44
2019-01-23T21:41:45.237Z,2.47
2019-01-23T21:44:16.507Z,2.37
2019-01-23T21:46:47.867Z,2.34
2019-01-23T21:49:19.401Z,2.20
2019-01-23T21:51:51.801Z,2.04
2019-01-23T21:54:23.382Z,2.09
2019-01-23T21:56:54.709Z,2.22
2019-01-23T21:59:25.956Z,2.26
2019-01-23T22:01:57.597Z,2.30
2019-01-23T22:04:28.951Z,2.36
2019-01-23T22:07:00.158Z,2.37
2019-01-23T22:09:31.396Z,2.19
2019-01-23T22:12:02.380Z,2.16
2019-01-23T22:14:33.423Z,2.25
2019-01-23T22:17:04.899Z,2.33
2019-01-23T22:19:36.057Z,2.32
2019-01-23T22:22:07.924Z,2.16
2019-01-23T22:24:39.172Z,2.23
2019-01-23T22:27:10.317Z,2.14
2019-01-23T22:29:41.518Z,2.30
2019-01-23T22:32:12.515Z,2.29
2019-01-23T22:34:44.114Z,2.29
2019-01-23T22:37:15.163Z,2.27
2019-01-23T22:39:47.453Z,2.35
2019-01-23T22:42:18.433Z,2.30
2019-01-23T22:44:51.196Z,2.28
2019-01-23T22:47:22.537Z,2.18
2019-01-23T22:49:54.308Z,2.03
2019-01-23T22:52:25.279Z,1.91
2019-01-23T22:54:56.615Z,1.91
2019-01-23T22:57:27.627Z,1.66
2019-01-23T22:59:58.594Z,1.81
2019-01-23T23:02:29.730Z,1.90
2019-01-23T23:05:00.880Z,2.08
2019-01-23T23:07:32.166Z,2.02
2019-01-23T23:10:03.655Z,1.93
2019-01-23T23:12:34.628Z,1.77
2019-01-23T23:15:07.133Z,1.82
2019-01-23T23:17:38.186Z,1.93
2019-01-23T23:20:09.901Z,2.05
2019-01-23T23:22:41.158Z,1.93
2019-01-23T23:25:12.352Z,1.87
2019-01-23T23:27:43.718Z,1.77
2019-01-23T23:30:15.341Z,1.72
2019-01-23T23:32:46.561Z,1.80
2019-01-23T23:35:17.682Z,1.65
2019-01-23T23:37:48.656Z,1.83
2019-01-23T23:40:21.210Z,1.77
2019-01-23T23:42:52.623Z,1.65
2019-01-23T23:45:24.078Z,1.59
2019-01-23T23:47:55.146Z,1.45
2019-01-23T23:50:26.102Z,1.37
2019-01-23T23:52:57.230Z,1.55
2019-01-23T23:55:28.281Z,1.33
2019-01-23T23:57:59.694Z,1.34
